sensor_id;sensor_type;location;lat;lon;timestamp;temperature;humidity
40848;DHT22;26570;50.962;5.340;2022-10-16T00:02:36;15.20;99.90
40848;DHT22;26570;50.962;5.340;2022-10-16T00:05:22;15.20;99.90
40848;DHT22;26570;50.962;5.340;2022-10-16T00:08:08;15.10;99.90
40848;DHT22;26570;50.962;5.340;2022-10-16T00:10:59;15.10;99.90
40848;DHT22;26570;50.962;5.340;2022-10-16T00:13:47;14.90;99.90
40848;DHT22;26570;50.962;5.340;2022-10-16T00:16:34;14.90;99.90
40848;DHT22;26570;50.962;5.340;2022-10-16T00:19:19;14.90;99.90
40848;DHT22;26570;50.962;5.340;2022-10-16T00:22:05;14.90;99.90
40848;DHT22;26570;50.962;5.340;2022-10-16T00:24:50;14.80;99.90
40848;DHT22;26570;50.962;5.340;2022-10-16T00:27:36;15.00;99.90
40848;DHT22;26570;50.962;5.340;2022-10-16T00:30:21;14.90;99.90
40848;DHT22;26570;50.962;5.340;2022-10-16T00:33:07;14.90;99.90
40848;DHT22;26570;50.962;5.340;2022-10-16T00:35:52;14.90;99.90
40848;DHT22;26570;50.962;5.340;2022-10-16T00:38:38;14.70;99.90
40848;DHT22;26570;50.962;5.340;2022-10-16T00:41:24;14.70;99.90
40848;DHT22;26570;50.962;5.340;2022-10-16T00:47:32;14.90;99.90
40848;DHT22;26570;50.962;5.340;2022-10-16T00:50:32;14.90;99.90
40848;DHT22;26570;50.962;5.340;2022-10-16T00:53:18;14.80;99.90
40848;DHT22;26570;50.962;5.340;2022-10-16T00:56:04;14.60;99.90
40848;DHT22;26570;50.962;5.340;2022-10-16T00:58:49;14.70;99.90
40848;DHT22;26570;50.962;5.340;2022-10-16T01:01:34;14.80;99.90
40848;DHT22;26570;50.962;5.340;2022-10-16T01:04:20;14.70;99.90
40848;DHT22;26570;50.962;5.340;2022-10-16T01:10:30;14.70;99.90
40848;DHT22;26570;50.962;5.340;2022-10-16T01:13:42;14.70;99.90
40848;DHT22;26570;50.962;5.340;2022-10-16T01:16:36;14.60;99.90
40848;DHT22;26570;50.962;5.340;2022-10-16T01:19:41;14.40;99.90
40848;DHT22;26570;50.962;5.340;2022-10-16T01:22:44;14.40;99.90
40848;DHT22;26570;50.962;5.340;2022-10-16T01:28:30;14.40;99.90
40848;DHT22;26570;50.962;5.340;2022-10-16T01:31:19;14.50;99.90
40848;DHT22;26570;50.962;5.340;2022-10-16T01:34:17;14.70;99.90
40848;DHT22;26570;50.962;5.340;2022-10-16T01:37:09;14.60;99.90
40848;DHT22;26570;50.962;5.340;2022-10-16T01:39:58;14.60;99.90
40848;DHT22;26570;50.962;5.340;2022-10-16T01:43:10;14.40;99.90
40848;DHT22;26570;50.962;5.340;2022-10-16T01:45:57;14.40;99.90
40848;DHT22;26570;50.962;5.340;2022-10-16T01:48:43;14.50;99.90
40848;DHT22;26570;50.962;5.340;2022-10-16T01:51:29;14.50;99.90
40848;DHT22;26570;50.962;5.340;2022-10-16T01:54:18;14.40;99.90
40848;DHT22;26570;50.962;5.340;2022-10-16T01:57:07;14.30;99.90
40848;DHT22;26570;50.962;5.340;2022-10-16T01:59:55;14.40;99.90
40848;DHT22;26570;50.962;5.340;2022-10-16T02:02:44;14.30;99.90
40848;DHT22;26570;50.962;5.340;2022-10-16T02:05:52;14.30;99.90
40848;DHT22;26570;50.962;5.340;2022-10-16T02:08:39;14.20;99.90
40848;DHT22;26570;50.962;5.340;2022-10-16T02:11:29;14.20;99.90
40848;DHT22;26570;50.962;5.340;2022-10-16T02:14:14;14.10;99.90
40848;DHT22;26570;50.962;5.340;2022-10-16T02:16:59;14.20;99.90
40848;DHT22;26570;50.962;5.340;2022-10-16T02:19:48;14.30;99.90
40848;DHT22;26570;50.962;5.340;2022-10-16T02:22:35;14.30;99.90
40848;DHT22;26570;50.962;5.340;2022-10-16T02:25:25;14.30;99.90
40848;DHT22;26570;50.962;5.340;2022-10-16T02:28:40;14.20;99.90
40848;DHT22;26570;50.962;5.340;2022-10-16T02:31:28;14.20;99.90
40848;DHT22;26570;50.962;5.340;2022-10-16T02:34:16;14.20;99.90
40848;DHT22;26570;50.962;5.340;2022-10-16T02:37:04;14.30;99.90
40848;DHT22;26570;50.962;5.340;2022-10-16T02:39:50;14.30;99.90
40848;DHT22;26570;50.962;5.340;2022-10-16T02:42:38;14.30;99.90
40848;DHT22;26570;50.962;5.340;2022-10-16T02:45:23;14.30;99.90
40848;DHT22;26570;50.962;5.340;2022-10-16T02:48:09;14.30;99.90
40848;DHT22;26570;50.962;5.340;2022-10-16T02:50:54;14.40;99.90
40848;DHT22;26570;50.962;5.340;2022-10-16T02:53:40;14.40;99.90
40848;DHT22;26570;50.962;5.340;2022-10-16T02:56:25;14.40;99.90
40848;DHT22;26570;50.962;5.340;2022-10-16T02:59:10;14.50;99.90
40848;DHT22;26570;50.962;5.340;2022-10-16T03:01:55;14.60;99.90
40848;DHT22;26570;50.962;5.340;2022-10-16T03:04:40;14.50;99.90
40848;DHT22;26570;50.962;5.340;2022-10-16T03:07:26;14.40;99.90
40848;DHT22;26570;50.962;5.340;2022-10-16T03:10:12;14.50;99.90
40848;DHT22;26570;50.962;5.340;2022-10-16T03:12:57;14.50;99.90
40848;DHT22;26570;50.962;5.340;2022-10-16T03:15:44;14.50;99.90
40848;DHT22;26570;50.962;5.340;2022-10-16T03:18:29;14.50;99.90
40848;DHT22;26570;50.962;5.340;2022-10-16T03:21:15;14.40;99.90
40848;DHT22;26570;50.962;5.340;2022-10-16T03:24:01;14.40;99.90
40848;DHT22;26570;50.962;5.340;2022-10-16T03:26:47;14.20;99.90
40848;DHT22;26570;50.962;5.340;2022-10-16T03:29:32;14.20;99.90
40848;DHT22;26570;50.962;5.340;2022-10-16T03:32:18;14.40;99.90
40848;DHT22;26570;50.962;5.340;2022-10-16T03:35:05;14.30;99.90
40848;DHT22;26570;50.962;5.340;2022-10-16T03:37:50;14.30;99.90
40848;DHT22;26570;50.962;5.340;2022-10-16T03:40:36;14.30;99.90
40848;DHT22;26570;50.962;5.340;2022-10-16T03:43:21;14.20;99.90
40848;DHT22;26570;50.962;5.340;2022-10-16T03:46:07;14.20;99.90
40848;DHT22;26570;50.962;5.340;2022-10-16T03:48:52;14.30;99.90
40848;DHT22;26570;50.962;5.340;2022-10-16T03:51:37;14.20;99.90
40848;DHT22;26570;50.962;5.340;2022-10-16T03:54:22;14.20;99.90
40848;DHT22;26570;50.962;5.340;2022-10-16T03:57:07;14.20;99.90
40848;DHT22;26570;50.962;5.340;2022-10-16T03:59:52;14.20;99.90
40848;DHT22;26570;50.962;5.340;2022-10-16T04:02:38;14.40;99.90
40848;DHT22;26570;50.962;5.340;2022-10-16T04:05:24;14.30;99.90
40848;DHT22;26570;50.962;5.340;2022-10-16T04:08:10;14.20;99.90
40848;DHT22;26570;50.962;5.340;2022-10-16T04:10:55;14.20;99.90
40848;DHT22;26570;50.962;5.340;2022-10-16T04:13:40;14.20;99.90
40848;DHT22;26570;50.962;5.340;2022-10-16T04:16:25;14.20;99.90
40848;DHT22;26570;50.962;5.340;2022-10-16T04:19:11;14.20;99.90
40848;DHT22;26570;50.962;5.340;2022-10-16T04:21:57;14.20;99.90
40848;DHT22;26570;50.962;5.340;2022-10-16T04:24:42;14.20;99.90
40848;DHT22;26570;50.962;5.340;2022-10-16T04:27:27;14.30;99.90
40848;DHT22;26570;50.962;5.340;2022-10-16T04:30:13;14.30;99.90
40848;DHT22;26570;50.962;5.340;2022-10-16T04:32:58;14.30;99.90
40848;DHT22;26570;50.962;5.340;2022-10-16T04:35:43;14.40;99.90
40848;DHT22;26570;50.962;5.340;2022-10-16T04:38:28;14.40;99.90
40848;DHT22;26570;50.962;5.340;2022-10-16T04:41:13;14.30;99.90
40848;DHT22;26570;50.962;5.340;2022-10-16T04:43:59;14.40;99.90
40848;DHT22;26570;50.962;5.340;2022-10-16T04:46:45;14.40;99.90
40848;DHT22;26570;50.962;5.340;2022-10-16T04:49:30;14.50;99.90
40848;DHT22;26570;50.962;5.340;2022-10-16T04:52:16;14.40;99.90
40848;DHT22;26570;50.962;5.340;2022-10-16T04:55:01;14.50;99.90
40848;DHT22;26570;50.962;5.340;2022-10-16T04:57:47;14.30;99.90
40848;DHT22;26570;50.962;5.340;2022-10-16T05:00:34;14.20;99.90
40848;DHT22;26570;50.962;5.340;2022-10-16T05:03:19;14.20;99.90
40848;DHT22;26570;50.962;5.340;2022-10-16T05:06:08;14.20;99.90
40848;DHT22;26570;50.962;5.340;2022-10-16T05:08:53;14.20;99.90
40848;DHT22;26570;50.962;5.340;2022-10-16T05:11:38;14.00;99.90
40848;DHT22;26570;50.962;5.340;2022-10-16T05:14:24;14.10;99.90
40848;DHT22;26570;50.962;5.340;2022-10-16T05:17:09;14.20;99.90
40848;DHT22;26570;50.962;5.340;2022-10-16T05:19:54;14.20;99.90
40848;DHT22;26570;50.962;5.340;2022-10-16T05:22:40;14.20;99.90
40848;DHT22;26570;50.962;5.340;2022-10-16T05:25:25;14.20;99.90
40848;DHT22;26570;50.962;5.340;2022-10-16T05:28:10;14.10;99.90
40848;DHT22;26570;50.962;5.340;2022-10-16T05:30:56;14.10;99.90
40848;DHT22;26570;50.962;5.340;2022-10-16T05:33:42;14.10;99.90
40848;DHT22;26570;50.962;5.340;2022-10-16T05:36:28;14.10;99.90
40848;DHT22;26570;50.962;5.340;2022-10-16T05:39:15;14.10;99.90
40848;DHT22;26570;50.962;5.340;2022-10-16T05:42:00;14.10;99.90
40848;DHT22;26570;50.962;5.340;2022-10-16T05:44:45;14.10;99.90
40848;DHT22;26570;50.962;5.340;2022-10-16T05:47:30;14.00;99.90
40848;DHT22;26570;50.962;5.340;2022-10-16T05:50:15;14.00;99.90
40848;DHT22;26570;50.962;5.340;2022-10-16T05:53:01;14.10;99.90
40848;DHT22;26570;50.962;5.340;2022-10-16T05:55:52;14.00;99.90
40848;DHT22;26570;50.962;5.340;2022-10-16T05:58:38;14.00;99.90
40848;DHT22;26570;50.962;5.340;2022-10-16T06:01:25;13.90;99.90
40848;DHT22;26570;50.962;5.340;2022-10-16T06:04:10;13.80;99.90
40848;DHT22;26570;50.962;5.340;2022-10-16T06:06:58;13.90;99.90
40848;DHT22;26570;50.962;5.340;2022-10-16T06:09:50;13.90;99.90
40848;DHT22;26570;50.962;5.340;2022-10-16T06:12:36;14.00;99.90
40848;DHT22;26570;50.962;5.340;2022-10-16T06:15:22;14.00;99.90
40848;DHT22;26570;50.962;5.340;2022-10-16T06:18:11;13.90;99.90
40848;DHT22;26570;50.962;5.340;2022-10-16T06:20:58;14.00;99.90
40848;DHT22;26570;50.962;5.340;2022-10-16T06:23:44;13.90;99.90
40848;DHT22;26570;50.962;5.340;2022-10-16T06:26:30;13.90;99.90
40848;DHT22;26570;50.962;5.340;2022-10-16T06:29:15;14.10;99.90
40848;DHT22;26570;50.962;5.340;2022-10-16T06:32:01;14.00;99.90
40848;DHT22;26570;50.962;5.340;2022-10-16T06:34:46;13.90;99.90
40848;DHT22;26570;50.962;5.340;2022-10-16T06:37:32;13.90;99.90
40848;DHT22;26570;50.962;5.340;2022-10-16T06:40:17;13.90;99.90
40848;DHT22;26570;50.962;5.340;2022-10-16T06:43:02;13.80;99.90
40848;DHT22;26570;50.962;5.340;2022-10-16T06:45:55;13.80;99.90
40848;DHT22;26570;50.962;5.340;2022-10-16T06:48:41;13.80;99.90
40848;DHT22;26570;50.962;5.340;2022-10-16T06:51:29;13.90;99.90
40848;DHT22;26570;50.962;5.340;2022-10-16T06:54:17;14.00;99.90
40848;DHT22;26570;50.962;5.340;2022-10-16T06:57:08;13.90;99.90
40848;DHT22;26570;50.962;5.340;2022-10-16T06:59:54;14.00;99.90
40848;DHT22;26570;50.962;5.340;2022-10-16T07:02:39;13.90;99.90
40848;DHT22;26570;50.962;5.340;2022-10-16T07:05:38;14.00;99.90
40848;DHT22;26570;50.962;5.340;2022-10-16T07:08:23;14.10;99.90
40848;DHT22;26570;50.962;5.340;2022-10-16T07:11:11;14.20;99.90
40848;DHT22;26570;50.962;5.340;2022-10-16T07:13:56;14.20;99.90
40848;DHT22;26570;50.962;5.340;2022-10-16T07:16:41;14.30;99.90
40848;DHT22;26570;50.962;5.340;2022-10-16T07:19:27;14.30;99.90
40848;DHT22;26570;50.962;5.340;2022-10-16T07:22:12;14.40;99.90
40848;DHT22;26570;50.962;5.340;2022-10-16T07:24:57;14.60;99.90
40848;DHT22;26570;50.962;5.340;2022-10-16T07:27:42;14.50;99.90
40848;DHT22;26570;50.962;5.340;2022-10-16T07:30:27;14.60;99.90
40848;DHT22;26570;50.962;5.340;2022-10-16T07:33:12;14.60;99.90
40848;DHT22;26570;50.962;5.340;2022-10-16T07:35:57;14.70;99.90
40848;DHT22;26570;50.962;5.340;2022-10-16T07:38:42;14.70;99.90
40848;DHT22;26570;50.962;5.340;2022-10-16T07:41:28;14.80;99.90
40848;DHT22;26570;50.962;5.340;2022-10-16T07:44:12;14.90;99.90
40848;DHT22;26570;50.962;5.340;2022-10-16T07:46:57;15.20;99.90
40848;DHT22;26570;50.962;5.340;2022-10-16T07:49:43;15.40;99.90
40848;DHT22;26570;50.962;5.340;2022-10-16T07:52:28;15.80;99.90
40848;DHT22;26570;50.962;5.340;2022-10-16T07:55:13;16.20;99.90
40848;DHT22;26570;50.962;5.340;2022-10-16T07:57:58;16.30;99.90
40848;DHT22;26570;50.962;5.340;2022-10-16T08:00:43;16.30;99.90
40848;DHT22;26570;50.962;5.340;2022-10-16T08:03:27;16.20;99.90
40848;DHT22;26570;50.962;5.340;2022-10-16T08:06:13;16.20;99.90
40848;DHT22;26570;50.962;5.340;2022-10-16T08:08:57;16.30;99.90
40848;DHT22;26570;50.962;5.340;2022-10-16T08:11:44;16.60;99.90
40848;DHT22;26570;50.962;5.340;2022-10-16T08:14:29;16.70;99.90
40848;DHT22;26570;50.962;5.340;2022-10-16T08:17:14;16.60;99.90
40848;DHT22;26570;50.962;5.340;2022-10-16T08:20:00;16.60;99.90
40848;DHT22;26570;50.962;5.340;2022-10-16T08:22:45;16.60;99.90
40848;DHT22;26570;50.962;5.340;2022-10-16T08:25:29;16.70;99.90
40848;DHT22;26570;50.962;5.340;2022-10-16T08:28:14;16.70;99.90
40848;DHT22;26570;50.962;5.340;2022-10-16T08:31:15;16.70;99.90
40848;DHT22;26570;50.962;5.340;2022-10-16T08:34:00;16.70;99.90
40848;DHT22;26570;50.962;5.340;2022-10-16T08:36:45;16.70;99.90
40848;DHT22;26570;50.962;5.340;2022-10-16T08:39:30;16.70;99.90
40848;DHT22;26570;50.962;5.340;2022-10-16T08:42:29;16.90;99.90
40848;DHT22;26570;50.962;5.340;2022-10-16T08:45:27;17.00;99.90
40848;DHT22;26570;50.962;5.340;2022-10-16T08:51:03;17.20;99.90
40848;DHT22;26570;50.962;5.340;2022-10-16T08:54:01;17.30;99.90
40848;DHT22;26570;50.962;5.340;2022-10-16T08:56:47;17.40;99.90
40848;DHT22;26570;50.962;5.340;2022-10-16T08:59:31;17.60;99.90
40848;DHT22;26570;50.962;5.340;2022-10-16T09:08:36;18.30;99.90
40848;DHT22;26570;50.962;5.340;2022-10-16T09:11:31;18.70;99.90
40848;DHT22;26570;50.962;5.340;2022-10-16T09:14:45;19.30;99.90
40848;DHT22;26570;50.962;5.340;2022-10-16T09:20:42;19.80;99.90
40848;DHT22;26570;50.962;5.340;2022-10-16T09:23:31;20.20;99.90
40848;DHT22;26570;50.962;5.340;2022-10-16T09:26:18;20.50;99.90
40848;DHT22;26570;50.962;5.340;2022-10-16T09:29:06;20.20;99.90
40848;DHT22;26570;50.962;5.340;2022-10-16T09:31:54;20.40;99.90
40848;DHT22;26570;50.962;5.340;2022-10-16T09:34:48;20.50;99.90
40848;DHT22;26570;50.962;5.340;2022-10-16T09:37:34;20.60;99.90
40848;DHT22;26570;50.962;5.340;2022-10-16T09:40:37;20.70;99.90
40848;DHT22;26570;50.962;5.340;2022-10-16T09:46:40;20.90;99.90
40848;DHT22;26570;50.962;5.340;2022-10-16T09:49:26;20.80;99.90
40848;DHT22;26570;50.962;5.340;2022-10-16T09:52:15;20.50;99.90
40848;DHT22;26570;50.962;5.340;2022-10-16T09:55:13;20.50;99.90
40848;DHT22;26570;50.962;5.340;2022-10-16T09:57:57;20.50;99.90
40848;DHT22;26570;50.962;5.340;2022-10-16T10:00:49;20.60;99.90
40848;DHT22;26570;50.962;5.340;2022-10-16T10:03:38;20.30;99.90
40848;DHT22;26570;50.962;5.340;2022-10-16T10:06:26;19.90;99.90
40848;DHT22;26570;50.962;5.340;2022-10-16T10:09:30;19.90;99.90
40848;DHT22;26570;50.962;5.340;2022-10-16T10:12:25;19.80;99.90
40848;DHT22;26570;50.962;5.340;2022-10-16T10:15:14;20.10;99.90
40848;DHT22;26570;50.962;5.340;2022-10-16T10:18:16;19.90;99.90
40848;DHT22;26570;50.962;5.340;2022-10-16T10:21:02;20.00;99.90
40848;DHT22;26570;50.962;5.340;2022-10-16T10:23:55;20.10;99.90
40848;DHT22;26570;50.962;5.340;2022-10-16T10:29:56;19.80;99.90
40848;DHT22;26570;50.962;5.340;2022-10-16T10:38:59;20.20;99.90
40848;DHT22;26570;50.962;5.340;2022-10-16T10:51:04;20.40;99.90
40848;DHT22;26570;50.962;5.340;2022-10-16T10:58:10;20.60;99.90
40848;DHT22;26570;50.962;5.340;2022-10-16T11:03:35;20.90;99.90
40848;DHT22;26570;50.962;5.340;2022-10-16T11:06:31;21.10;99.90
40848;DHT22;26570;50.962;5.340;2022-10-16T11:09:38;21.00;99.90
40848;DHT22;26570;50.962;5.340;2022-10-16T11:12:33;21.10;99.90
40848;DHT22;26570;50.962;5.340;2022-10-16T11:18:42;21.30;99.90
40848;DHT22;26570;50.962;5.340;2022-10-16T11:21:37;21.60;99.90
40848;DHT22;26570;50.962;5.340;2022-10-16T11:24:27;21.80;99.90
40848;DHT22;26570;50.962;5.340;2022-10-16T11:27:21;21.80;99.90
40848;DHT22;26570;50.962;5.340;2022-10-16T11:30:28;21.60;99.90
40848;DHT22;26570;50.962;5.340;2022-10-16T11:36:25;21.70;99.90
40848;DHT22;26570;50.962;5.340;2022-10-16T11:39:18;21.70;99.90
40848;DHT22;26570;50.962;5.340;2022-10-16T11:45:33;21.60;99.90
40848;DHT22;26570;50.962;5.340;2022-10-16T11:51:40;21.50;99.90
40848;DHT22;26570;50.962;5.340;2022-10-16T11:54:38;21.70;99.90
40848;DHT22;26570;50.962;5.340;2022-10-16T11:57:33;21.50;99.90
40848;DHT22;26570;50.962;5.340;2022-10-16T12:06:44;21.80;99.90
40848;DHT22;26570;50.962;5.340;2022-10-16T12:09:32;21.60;99.90
40848;DHT22;26570;50.962;5.340;2022-10-16T12:15:25;21.70;99.90
40848;DHT22;26570;50.962;5.340;2022-10-16T12:18:24;21.70;99.90
40848;DHT22;26570;50.962;5.340;2022-10-16T12:21:10;21.70;99.90
40848;DHT22;26570;50.962;5.340;2022-10-16T12:23:58;21.60;99.90
40848;DHT22;26570;50.962;5.340;2022-10-16T12:26:45;21.50;99.90
40848;DHT22;26570;50.962;5.340;2022-10-16T12:29:35;21.30;99.90
40848;DHT22;26570;50.962;5.340;2022-10-16T12:32:37;21.50;99.90
40848;DHT22;26570;50.962;5.340;2022-10-16T12:35:29;21.70;99.90
40848;DHT22;26570;50.962;5.340;2022-10-16T12:38:20;21.70;99.90
40848;DHT22;26570;50.962;5.340;2022-10-16T12:41:07;21.90;99.90
40848;DHT22;26570;50.962;5.340;2022-10-16T12:43:53;22.20;99.90
40848;DHT22;26570;50.962;5.340;2022-10-16T12:46:39;22.40;99.90
40848;DHT22;26570;50.962;5.340;2022-10-16T12:49:37;22.10;99.90
40848;DHT22;26570;50.962;5.340;2022-10-16T12:52:35;22.20;99.90
40848;DHT22;26570;50.962;5.340;2022-10-16T12:55:21;22.10;99.90
40848;DHT22;26570;50.962;5.340;2022-10-16T12:58:09;22.20;99.90
40848;DHT22;26570;50.962;5.340;2022-10-16T13:00:58;22.20;99.90
40848;DHT22;26570;50.962;5.340;2022-10-16T13:06:43;22.10;99.90
40848;DHT22;26570;50.962;5.340;2022-10-16T13:09:40;22.10;99.90
40848;DHT22;26570;50.962;5.340;2022-10-16T13:28:21;22.00;99.90
40848;DHT22;26570;50.962;5.340;2022-10-16T13:31:20;22.00;99.90
40848;DHT22;26570;50.962;5.340;2022-10-16T13:34:09;21.80;99.90
40848;DHT22;26570;50.962;5.340;2022-10-16T13:36:56;21.70;99.90
40848;DHT22;26570;50.962;5.340;2022-10-16T13:39:41;21.70;99.90
40848;DHT22;26570;50.962;5.340;2022-10-16T13:42:28;21.70;99.90
40848;DHT22;26570;50.962;5.340;2022-10-16T13:45:21;21.70;99.90
40848;DHT22;26570;50.962;5.340;2022-10-16T13:48:09;21.70;99.90
40848;DHT22;26570;50.962;5.340;2022-10-16T13:51:01;21.60;99.90
40848;DHT22;26570;50.962;5.340;2022-10-16T13:53:46;21.80;99.90
40848;DHT22;26570;50.962;5.340;2022-10-16T13:56:32;21.70;99.90
40848;DHT22;26570;50.962;5.340;2022-10-16T13:59:33;21.70;99.90
40848;DHT22;26570;50.962;5.340;2022-10-16T14:02:31;21.50;99.90
40848;DHT22;26570;50.962;5.340;2022-10-16T14:05:19;21.40;99.90
40848;DHT22;26570;50.962;5.340;2022-10-16T14:08:04;21.30;99.90
40848;DHT22;26570;50.962;5.340;2022-10-16T14:10:52;21.30;99.90
40848;DHT22;26570;50.962;5.340;2022-10-16T14:13:43;21.40;99.90
40848;DHT22;26570;50.962;5.340;2022-10-16T14:16:30;21.50;99.90
40848;DHT22;26570;50.962;5.340;2022-10-16T14:19:24;21.50;99.90
40848;DHT22;26570;50.962;5.340;2022-10-16T14:28:15;21.60;99.90
40848;DHT22;26570;50.962;5.340;2022-10-16T14:31:01;21.50;99.90
40848;DHT22;26570;50.962;5.340;2022-10-16T14:33:47;21.40;99.90
40848;DHT22;26570;50.962;5.340;2022-10-16T14:36:33;21.30;99.90
40848;DHT22;26570;50.962;5.340;2022-10-16T14:39:20;21.30;99.90
40848;DHT22;26570;50.962;5.340;2022-10-16T14:42:14;21.20;99.90
40848;DHT22;26570;50.962;5.340;2022-10-16T14:45:00;21.10;99.90
40848;DHT22;26570;50.962;5.340;2022-10-16T14:47:52;21.20;99.90
40848;DHT22;26570;50.962;5.340;2022-10-16T14:50:37;21.20;99.90
40848;DHT22;26570;50.962;5.340;2022-10-16T14:53:39;21.20;99.90
40848;DHT22;26570;50.962;5.340;2022-10-16T14:56:50;21.20;99.90
40848;DHT22;26570;50.962;5.340;2022-10-16T14:59:40;21.10;99.90
40848;DHT22;26570;50.962;5.340;2022-10-16T15:02:32;21.00;99.90
40848;DHT22;26570;50.962;5.340;2022-10-16T15:05:25;21.00;99.90
40848;DHT22;26570;50.962;5.340;2022-10-16T15:08:11;20.90;99.90
40848;DHT22;26570;50.962;5.340;2022-10-16T15:10:57;21.00;99.90
40848;DHT22;26570;50.962;5.340;2022-10-16T15:13:42;21.00;99.90
40848;DHT22;26570;50.962;5.340;2022-10-16T15:16:27;21.10;99.90
40848;DHT22;26570;50.962;5.340;2022-10-16T15:19:13;21.10;99.90
40848;DHT22;26570;50.962;5.340;2022-10-16T15:21:52;21.10;99.90
40848;DHT22;26570;50.962;5.340;2022-10-16T15:24:37;21.00;99.90
40848;DHT22;26570;50.962;5.340;2022-10-16T15:27:22;20.90;99.90
40848;DHT22;26570;50.962;5.340;2022-10-16T15:30:07;20.90;99.90
40848;DHT22;26570;50.962;5.340;2022-10-16T15:32:53;20.90;99.90
40848;DHT22;26570;50.962;5.340;2022-10-16T15:35:38;20.70;99.90
40848;DHT22;26570;50.962;5.340;2022-10-16T15:38:23;20.50;99.90
40848;DHT22;26570;50.962;5.340;2022-10-16T15:41:08;20.50;99.90
40848;DHT22;26570;50.962;5.340;2022-10-16T15:43:53;20.40;99.90
40848;DHT22;26570;50.962;5.340;2022-10-16T15:46:38;20.40;99.90
40848;DHT22;26570;50.962;5.340;2022-10-16T15:49:23;20.30;99.90
40848;DHT22;26570;50.962;5.340;2022-10-16T15:52:11;20.20;99.90
40848;DHT22;26570;50.962;5.340;2022-10-16T15:54:58;20.20;99.90
40848;DHT22;26570;50.962;5.340;2022-10-16T15:57:42;20.20;99.90
40848;DHT22;26570;50.962;5.340;2022-10-16T16:00:28;20.30;99.90
40848;DHT22;26570;50.962;5.340;2022-10-16T16:03:13;20.10;99.90
40848;DHT22;26570;50.962;5.340;2022-10-16T16:06:03;19.90;99.90
40848;DHT22;26570;50.962;5.340;2022-10-16T16:08:48;19.90;99.90
40848;DHT22;26570;50.962;5.340;2022-10-16T16:11:33;19.80;99.90
40848;DHT22;26570;50.962;5.340;2022-10-16T16:14:22;19.70;99.90
40848;DHT22;26570;50.962;5.340;2022-10-16T16:17:08;19.70;99.90
40848;DHT22;26570;50.962;5.340;2022-10-16T16:19:54;19.70;99.90
40848;DHT22;26570;50.962;5.340;2022-10-16T16:22:40;19.50;99.90
40848;DHT22;26570;50.962;5.340;2022-10-16T16:25:25;19.40;99.90
40848;DHT22;26570;50.962;5.340;2022-10-16T16:28:10;19.30;99.90
40848;DHT22;26570;50.962;5.340;2022-10-16T16:30:58;19.30;99.90
40848;DHT22;26570;50.962;5.340;2022-10-16T16:33:44;19.20;99.90
40848;DHT22;26570;50.962;5.340;2022-10-16T16:36:29;19.10;99.90
40848;DHT22;26570;50.962;5.340;2022-10-16T16:39:15;19.00;99.90
40848;DHT22;26570;50.962;5.340;2022-10-16T16:42:00;18.90;99.90
40848;DHT22;26570;50.962;5.340;2022-10-16T16:44:50;18.90;99.90
40848;DHT22;26570;50.962;5.340;2022-10-16T16:47:36;18.90;99.90
40848;DHT22;26570;50.962;5.340;2022-10-16T16:50:23;18.80;99.90
40848;DHT22;26570;50.962;5.340;2022-10-16T16:53:08;18.70;99.90
40848;DHT22;26570;50.962;5.340;2022-10-16T16:55:53;18.60;99.90
40848;DHT22;26570;50.962;5.340;2022-10-16T16:58:38;18.50;99.90
40848;DHT22;26570;50.962;5.340;2022-10-16T17:01:26;18.40;99.90
40848;DHT22;26570;50.962;5.340;2022-10-16T17:04:11;18.40;99.90
40848;DHT22;26570;50.962;5.340;2022-10-16T17:06:57;18.30;99.90
40848;DHT22;26570;50.962;5.340;2022-10-16T17:09:42;18.20;99.90
40848;DHT22;26570;50.962;5.340;2022-10-16T17:12:29;18.20;99.90
40848;DHT22;26570;50.962;5.340;2022-10-16T17:15:14;18.10;99.90
40848;DHT22;26570;50.962;5.340;2022-10-16T17:17:59;18.00;99.90
40848;DHT22;26570;50.962;5.340;2022-10-16T17:20:44;17.90;99.90
40848;DHT22;26570;50.962;5.340;2022-10-16T17:23:29;17.90;99.90
40848;DHT22;26570;50.962;5.340;2022-10-16T17:26:16;17.80;99.90
40848;DHT22;26570;50.962;5.340;2022-10-16T17:29:01;17.70;99.90
40848;DHT22;26570;50.962;5.340;2022-10-16T17:31:46;17.70;99.90
40848;DHT22;26570;50.962;5.340;2022-10-16T17:34:34;17.70;99.90
40848;DHT22;26570;50.962;5.340;2022-10-16T17:37:19;17.60;99.90
40848;DHT22;26570;50.962;5.340;2022-10-16T17:40:04;17.70;99.90
40848;DHT22;26570;50.962;5.340;2022-10-16T17:42:49;17.60;99.90
40848;DHT22;26570;50.962;5.340;2022-10-16T17:45:37;17.60;99.90
40848;DHT22;26570;50.962;5.340;2022-10-16T17:48:23;17.60;99.90
40848;DHT22;26570;50.962;5.340;2022-10-16T17:51:11;17.80;99.90
40848;DHT22;26570;50.962;5.340;2022-10-16T17:53:58;17.90;99.90
40848;DHT22;26570;50.962;5.340;2022-10-16T17:56:43;17.70;99.90
40848;DHT22;26570;50.962;5.340;2022-10-16T17:59:28;17.60;99.90
40848;DHT22;26570;50.962;5.340;2022-10-16T18:02:13;17.50;99.90
40848;DHT22;26570;50.962;5.340;2022-10-16T18:04:59;17.40;99.90
40848;DHT22;26570;50.962;5.340;2022-10-16T18:07:44;17.40;99.90
40848;DHT22;26570;50.962;5.340;2022-10-16T18:10:29;17.30;99.90
40848;DHT22;26570;50.962;5.340;2022-10-16T18:13:15;17.40;99.90
40848;DHT22;26570;50.962;5.340;2022-10-16T18:16:09;17.30;99.90
40848;DHT22;26570;50.962;5.340;2022-10-16T18:18:57;17.30;99.90
40848;DHT22;26570;50.962;5.340;2022-10-16T18:21:42;17.20;99.90
40848;DHT22;26570;50.962;5.340;2022-10-16T18:24:28;17.30;99.90
40848;DHT22;26570;50.962;5.340;2022-10-16T18:27:13;17.20;99.90
40848;DHT22;26570;50.962;5.340;2022-10-16T18:29:58;17.20;99.90
40848;DHT22;26570;50.962;5.340;2022-10-16T18:32:44;17.20;99.90
40848;DHT22;26570;50.962;5.340;2022-10-16T18:35:29;17.20;99.90
40848;DHT22;26570;50.962;5.340;2022-10-16T18:38:15;17.10;99.90
40848;DHT22;26570;50.962;5.340;2022-10-16T18:41:01;17.10;99.90
40848;DHT22;26570;50.962;5.340;2022-10-16T18:43:48;17.10;99.90
40848;DHT22;26570;50.962;5.340;2022-10-16T18:46:33;17.10;99.90
40848;DHT22;26570;50.962;5.340;2022-10-16T18:49:18;17.00;99.90
40848;DHT22;26570;50.962;5.340;2022-10-16T18:52:04;17.00;99.90
40848;DHT22;26570;50.962;5.340;2022-10-16T18:54:50;17.00;99.90
40848;DHT22;26570;50.962;5.340;2022-10-16T18:57:39;16.90;99.90
40848;DHT22;26570;50.962;5.340;2022-10-16T19:00:24;16.80;99.90
40848;DHT22;26570;50.962;5.340;2022-10-16T19:03:09;16.80;99.90
40848;DHT22;26570;50.962;5.340;2022-10-16T19:05:59;16.80;99.90
40848;DHT22;26570;50.962;5.340;2022-10-16T19:08:45;16.70;99.90
40848;DHT22;26570;50.962;5.340;2022-10-16T19:11:30;16.70;99.90
40848;DHT22;26570;50.962;5.340;2022-10-16T19:14:16;16.70;99.90
40848;DHT22;26570;50.962;5.340;2022-10-16T19:17:02;16.60;99.90
40848;DHT22;26570;50.962;5.340;2022-10-16T19:19:46;16.60;99.90